sensor_id;sensor_type;location;lat;lon;timestamp;pressure;altitude;pressure_sealevel;temperature;humidity
32875;BME280;40468;42.128;24.750;2023-03-29T00:01:00;100042.59;;;4.30;42.57
32875;BME280;40468;42.128;24.750;2023-03-29T00:02:31;100047.59;;;4.39;42.58
32875;BME280;40468;42.128;24.750;2023-03-29T00:04:04;100060.47;;;4.41;42.46
32875;BME280;40468;42.128;24.750;2023-03-29T00:05:37;100058.81;;;4.38;42.44
32875;BME280;40468;42.128;24.750;2023-03-29T00:07:10;100052.81;;;4.36;42.44
32875;BME280;40468;42.128;24.750;2023-03-29T00:08:43;100058.03;;;4.31;42.55
32875;BME280;40468;42.128;24.750;2023-03-29T00:10:15;100053.75;;;4.32;42.62
32875;BME280;40468;42.128;24.750;2023-03-29T00:11:47;100063.19;;;4.31;42.60
32875;BME280;40468;42.128;24.750;2023-03-29T00:13:19;100032.53;;;4.15;42.72
32875;BME280;40468;42.128;24.750;2023-03-29T00:14:52;100057.19;;;4.31;42.71
32875;BME280;40468;42.128;24.750;2023-03-29T00:16:25;100046.06;;;4.27;42.71
32875;BME280;40468;42.128;24.750;2023-03-29T00:17:57;100059.81;;;4.28;42.82
32875;BME280;40468;42.128;24.750;2023-03-29T00:19:29;100047.84;;;4.22;42.83
32875;BME280;40468;42.128;24.750;2023-03-29T00:21:05;100059.00;;;4.24;43.00
32875;BME280;40468;42.128;24.750;2023-03-29T00:22:38;100065.00;;;4.25;43.02
32875;BME280;40468;42.128;24.750;2023-03-29T00:24:11;100068.44;;;4.25;42.99
32875;BME280;40468;42.128;24.750;2023-03-29T00:25:43;100070.97;;;4.28;42.88
32875;BME280;40468;42.128;24.750;2023-03-29T00:27:16;100068.38;;;4.30;43.02
32875;BME280;40468;42.128;24.750;2023-03-29T00:28:48;100064.94;;;4.29;42.80
32875;BME280;40468;42.128;24.750;2023-03-29T00:30:20;100070.97;;;4.28;42.81
32875;BME280;40468;42.128;24.750;2023-03-29T00:31:53;99992.69;;;3.78;42.83
32875;BME280;40468;42.128;24.750;2023-03-29T00:33:25;100074.38;;;4.30;42.84
32875;BME280;40468;42.128;24.750;2023-03-29T00:34:58;100078.69;;;4.30;42.87
32875;BME280;40468;42.128;24.750;2023-03-29T00:36:30;100083.84;;;4.28;42.78
32875;BME280;40468;42.128;24.750;2023-03-29T00:38:02;100091.59;;;4.28;42.70
32875;BME280;40468;42.128;24.750;2023-03-29T00:39:35;100082.16;;;4.26;42.78
32875;BME280;40468;42.128;24.750;2023-03-29T00:41:10;100090.78;;;4.26;42.69
32875;BME280;40468;42.128;24.750;2023-03-29T00:42:43;100092.47;;;4.26;42.84
32875;BME280;40468;42.128;24.750;2023-03-29T00:46:06;99955.59;;;3.28;42.88
32875;BME280;40468;42.128;24.750;2023-03-29T00:47:41;100085.81;;;4.14;43.00
32875;BME280;40468;42.128;24.750;2023-03-29T00:49:14;100085.00;;;4.09;42.97
32875;BME280;40468;42.128;24.750;2023-03-29T00:50:48;100090.16;;;4.09;43.05
32875;BME280;40468;42.128;24.750;2023-03-29T00:52:21;100092.72;;;4.10;43.05
32875;BME280;40468;42.128;24.750;2023-03-29T00:53:54;100092.75;;;4.09;42.99
32875;BME280;40468;42.128;24.750;2023-03-29T00:55:31;100082.44;;;4.09;42.92
32875;BME280;40468;42.128;24.750;2023-03-29T00:57:06;100093.59;;;4.08;43.04
32875;BME280;40468;42.128;24.750;2023-03-29T00:58:42;100097.91;;;4.07;43.35
32875;BME280;40468;42.128;24.750;2023-03-29T01:00:19;100090.22;;;4.06;43.30
32875;BME280;40468;42.128;24.750;2023-03-29T01:01:56;100098.78;;;4.05;43.38
32875;BME280;40468;42.128;24.750;2023-03-29T01:03:35;100097.94;;;4.06;43.26
32875;BME280;40468;42.128;24.750;2023-03-29T01:05:14;100098.78;;;4.05;43.29
32875;BME280;40468;42.128;24.750;2023-03-29T01:06:51;100107.41;;;4.05;43.16
32875;BME280;40468;42.128;24.750;2023-03-29T01:08:26;100109.09;;;4.05;43.34
32875;BME280;40468;42.128;24.750;2023-03-29T01:10:03;100043.63;;;3.55;43.08
32875;BME280;40468;42.128;24.750;2023-03-29T01:11:42;100113.41;;;4.04;43.19
32875;BME280;40468;42.128;24.750;2023-03-29T01:13:18;100106.53;;;4.06;43.01
32875;BME280;40468;42.128;24.750;2023-03-29T01:14:54;100110.84;;;4.04;42.93
32875;BME280;40468;42.128;24.750;2023-03-29T01:16:34;100122.84;;;4.07;42.87
32875;BME280;40468;42.128;24.750;2023-03-29T01:18:09;100119.41;;;4.05;42.93
32875;BME280;40468;42.128;24.750;2023-03-29T01:19:44;100118.59;;;4.03;43.06
32875;BME280;40468;42.128;24.750;2023-03-29T01:21:21;100118.59;;;4.01;42.90
32875;BME280;40468;42.128;24.750;2023-03-29T01:23:09;100116.94;;;3.97;43.03
32875;BME280;40468;42.128;24.750;2023-03-29T01:24:57;100109.25;;;3.94;43.02
32875;BME280;40468;42.128;24.750;2023-03-29T01:26:41;100110.06;;;3.98;43.10
32875;BME280;40468;42.128;24.750;2023-03-29T01:28:21;100114.38;;;3.97;43.05
32875;BME280;40468;42.128;24.750;2023-03-29T01:29:58;100117.00;;;3.93;43.01
32875;BME280;40468;42.128;24.750;2023-03-29T01:31:37;100106.66;;;3.96;43.04
32875;BME280;40468;42.128;24.750;2023-03-29T01:33:15;100103.19;;;3.98;42.95
32875;BME280;40468;42.128;24.750;2023-03-29T01:34:54;100116.94;;;3.97;43.01
32875;BME280;40468;42.128;24.750;2023-03-29T01:36:30;100111.81;;;3.97;42.92
32875;BME280;40468;42.128;24.750;2023-03-29T01:38:09;100105.84;;;3.94;42.87
32875;BME280;40468;42.128;24.750;2023-03-29T01:39:45;100111.00;;;3.94;42.71
32875;BME280;40468;42.128;24.750;2023-03-29T01:41:17;100099.81;;;3.93;42.79
32875;BME280;40468;42.128;24.750;2023-03-29T01:42:54;99965.28;;;3.09;42.75
32875;BME280;40468;42.128;24.750;2023-03-29T01:44:33;100104.97;;;3.93;42.69
32875;BME280;40468;42.128;24.750;2023-03-29T01:46:10;100097.28;;;3.92;42.80
32875;BME280;40468;42.128;24.750;2023-03-29T01:47:47;100094.69;;;3.90;42.88
32875;BME280;40468;42.128;24.750;2023-03-29T01:49:27;100105.00;;;3.92;42.83
32875;BME280;40468;42.128;24.750;2023-03-29T01:51:05;100112.75;;;3.90;43.08
32875;BME280;40468;42.128;24.750;2023-03-29T01:52:44;100096.50;;;3.83;43.09
32875;BME280;40468;42.128;24.750;2023-03-29T01:54:23;100113.63;;;3.89;43.02
32875;BME280;40468;42.128;24.750;2023-03-29T01:56:01;100105.94;;;3.87;42.92
32875;BME280;40468;42.128;24.750;2023-03-29T01:57:36;100109.44;;;3.82;42.83
32875;BME280;40468;42.128;24.750;2023-03-29T01:59:11;100116.19;;;3.91;42.82
32875;BME280;40468;42.128;24.750;2023-03-29T02:00:48;100118.72;;;3.92;42.68
32875;BME280;40468;42.128;24.750;2023-03-29T02:02:25;100048.09;;;3.44;42.97
32875;BME280;40468;42.128;24.750;2023-03-29T02:04:00;100120.44;;;3.93;42.73
32875;BME280;40468;42.128;24.750;2023-03-29T02:05:36;100121.28;;;3.95;42.67
32875;BME280;40468;42.128;24.750;2023-03-29T02:07:11;100131.56;;;3.97;42.69
32875;BME280;40468;42.128;24.750;2023-03-29T02:08:44;100135.84;;;3.98;42.58
32875;BME280;40468;42.128;24.750;2023-03-29T02:10:16;100129.00;;;3.97;42.48
32875;BME280;40468;42.128;24.750;2023-03-29T02:11:50;100134.97;;;3.99;42.47
32875;BME280;40468;42.128;24.750;2023-03-29T02:13:22;100137.56;;;3.97;42.45
32875;BME280;40468;42.128;24.750;2023-03-29T02:14:53;100134.16;;;3.95;42.37
32875;BME280;40468;42.128;24.750;2023-03-29T02:16:27;100123.09;;;3.87;42.48
32875;BME280;40468;42.128;24.750;2023-03-29T02:17:59;100142.75;;;3.94;42.50
32875;BME280;40468;42.128;24.750;2023-03-29T02:19:33;100147.06;;;3.92;42.81
32875;BME280;40468;42.128;24.750;2023-03-29T02:21:06;100149.72;;;3.84;42.83
32875;BME280;40468;42.128;24.750;2023-03-29T02:22:45;100159.22;;;3.81;43.00
32875;BME280;40468;42.128;24.750;2023-03-29T02:24:20;100159.31;;;3.75;43.09
32875;BME280;40468;42.128;24.750;2023-03-29T02:25:52;100162.75;;;3.72;43.22
32875;BME280;40468;42.128;24.750;2023-03-29T02:27:27;100163.75;;;3.62;43.52
32875;BME280;40468;42.128;24.750;2023-03-29T02:29:00;100166.28;;;3.63;43.63
32875;BME280;40468;42.128;24.750;2023-03-29T02:30:38;100170.59;;;3.63;43.65
32875;BME280;40468;42.128;24.750;2023-03-29T02:32:16;100171.47;;;3.62;43.78
32875;BME280;40468;42.128;24.750;2023-03-29T02:33:55;100177.50;;;3.61;43.77
32875;BME280;40468;42.128;24.750;2023-03-29T02:35:32;100175.78;;;3.61;43.74
32875;BME280;40468;42.128;24.750;2023-03-29T02:37:07;100166.31;;;3.60;43.88
32875;BME280;40468;42.128;24.750;2023-03-29T02:38:41;100180.97;;;3.58;43.83
32875;BME280;40468;42.128;24.750;2023-03-29T02:40:13;100171.50;;;3.57;43.67
32875;BME280;40468;42.128;24.750;2023-03-29T02:41:48;100174.09;;;3.59;43.66
32875;BME280;40468;42.128;24.750;2023-03-29T02:43:22;100170.69;;;3.55;43.72
32875;BME280;40468;42.128;24.750;2023-03-29T02:44:55;100176.66;;;3.59;43.58
32875;BME280;40468;42.128;24.750;2023-03-29T02:46:29;100183.50;;;3.60;43.39
32875;BME280;40468;42.128;24.750;2023-03-29T02:48:04;100174.13;;;3.56;43.26
32875;BME280;40468;42.128;24.750;2023-03-29T02:49:38;100167.19;;;3.58;43.10
32875;BME280;40468;42.128;24.750;2023-03-29T02:51:14;100166.47;;;3.50;43.13
32875;BME280;40468;42.128;24.750;2023-03-29T02:52:52;100176.72;;;3.53;43.03
32875;BME280;40468;42.128;24.750;2023-03-29T02:54:26;100169.00;;;3.51;42.94
32875;BME280;40468;42.128;24.750;2023-03-29T02:56:00;100172.47;;;3.50;42.86
32875;BME280;40468;42.128;24.750;2023-03-29T02:57:32;100171.56;;;3.51;42.96
32875;BME280;40468;42.128;24.750;2023-03-29T02:59:07;100168.19;;;3.48;42.86
32875;BME280;40468;42.128;24.750;2023-03-29T03:00:45;100054.81;;;2.77;42.78
32875;BME280;40468;42.128;24.750;2023-03-29T03:02:17;100178.47;;;3.49;42.64
32875;BME280;40468;42.128;24.750;2023-03-29T03:03:50;100180.19;;;3.49;42.82
32875;BME280;40468;42.128;24.750;2023-03-29T03:05:22;100181.91;;;3.48;42.71
32875;BME280;40468;42.128;24.750;2023-03-29T03:06:55;100181.06;;;3.48;42.86
32875;BME280;40468;42.128;24.750;2023-03-29T03:08:25;100159.69;;;3.41;42.79
32875;BME280;40468;42.128;24.750;2023-03-29T03:09:57;100179.41;;;3.44;42.75
32875;BME280;40468;42.128;24.750;2023-03-29T03:11:29;100181.09;;;3.45;42.84
32875;BME280;40468;42.128;24.750;2023-03-29T03:13:02;100191.38;;;3.43;42.82
32875;BME280;40468;42.128;24.750;2023-03-29T03:14:33;100186.25;;;3.43;42.99
32875;BME280;40468;42.128;24.750;2023-03-29T03:16:06;100189.69;;;3.42;42.98
32875;BME280;40468;42.128;24.750;2023-03-29T03:17:38;100187.16;;;3.40;43.05
32875;BME280;40468;42.128;24.750;2023-03-29T03:19:12;100190.56;;;3.39;43.01
32875;BME280;40468;42.128;24.750;2023-03-29T03:20:53;100193.22;;;3.35;43.05
32875;BME280;40468;42.128;24.750;2023-03-29T03:22:25;100194.94;;;3.34;43.16
32875;BME280;40468;42.128;24.750;2023-03-29T03:23:57;100201.81;;;3.32;43.24
32875;BME280;40468;42.128;24.750;2023-03-29T03:25:29;100103.66;;;2.75;43.20
32875;BME280;40468;42.128;24.750;2023-03-29T03:27:01;100204.38;;;3.32;43.30
32875;BME280;40468;42.128;24.750;2023-03-29T03:28:34;100204.41;;;3.28;43.20
32875;BME280;40468;42.128;24.750;2023-03-29T03:30:07;100206.97;;;3.28;43.50
32875;BME280;40468;42.128;24.750;2023-03-29T03:31:39;100205.28;;;3.27;43.39
32875;BME280;40468;42.128;24.750;2023-03-29T03:33:11;100201.91;;;3.18;43.42
32875;BME280;40468;42.128;24.750;2023-03-29T03:34:44;100205.34;;;3.21;43.42
32875;BME280;40468;42.128;24.750;2023-03-29T03:36:16;100213.06;;;3.21;43.41
32875;BME280;40468;42.128;24.750;2023-03-29T03:37:48;100214.78;;;3.20;43.51
32875;BME280;40468;42.128;24.750;2023-03-29T03:39:20;100212.22;;;3.20;43.54
32875;BME280;40468;42.128;24.750;2023-03-29T03:40:54;100170.44;;;2.89;43.42
32875;BME280;40468;42.128;24.750;2023-03-29T03:42:26;100221.63;;;3.21;43.44
32875;BME280;40468;42.128;24.750;2023-03-29T03:43:59;100137.13;;;2.72;43.57
32875;BME280;40468;42.128;24.750;2023-03-29T03:45:29;100219.94;;;3.20;43.46
32875;BME280;40468;42.128;24.750;2023-03-29T03:47:01;100213.06;;;3.21;43.51
32875;BME280;40468;42.128;24.750;2023-03-29T03:48:35;100220.75;;;3.22;43.41
32875;BME280;40468;42.128;24.750;2023-03-29T03:50:09;100213.94;;;3.19;43.33
32875;BME280;40468;42.128;24.750;2023-03-29T03:51:41;100216.47;;;3.21;43.18
32875;BME280;40468;42.128;24.750;2023-03-29T03:53:14;100217.34;;;3.22;43.20
32875;BME280;40468;42.128;24.750;2023-03-29T03:54:46;100219.09;;;3.19;43.20
32875;BME280;40468;42.128;24.750;2023-03-29T03:56:19;100217.38;;;3.20;43.06
32875;BME280;40468;42.128;24.750;2023-03-29T03:57:51;100221.59;;;3.24;43.10
32875;BME280;40468;42.128;24.750;2023-03-29T03:59:23;100221.59;;;3.27;42.97
32875;BME280;40468;42.128;24.750;2023-03-29T04:00:55;100233.56;;;3.28;42.90
32875;BME280;40468;42.128;24.750;2023-03-29T04:02:27;100227.56;;;3.28;42.95
32875;BME280;40468;42.128;24.750;2023-03-29T04:03:59;100229.34;;;3.26;42.83
32875;BME280;40468;42.128;24.750;2023-03-29T04:05:32;100232.72;;;3.28;42.89
32875;BME280;40468;42.128;24.750;2023-03-29T04:07:04;100228.41;;;3.28;42.83
32875;BME280;40468;42.128;24.750;2023-03-29T04:08:35;100229.34;;;3.26;42.70
32875;BME280;40468;42.128;24.750;2023-03-29T04:10:08;100224.97;;;3.32;42.87
32875;BME280;40468;42.128;24.750;2023-03-29T04:11:40;100231.81;;;3.33;42.74
32875;BME280;40468;42.128;24.750;2023-03-29T04:13:12;100244.69;;;3.35;42.88
32875;BME280;40468;42.128;24.750;2023-03-29T04:14:44;100242.09;;;3.36;42.83
32875;BME280;40468;42.128;24.750;2023-03-29T04:16:17;100235.25;;;3.34;42.86
32875;BME280;40468;42.128;24.750;2023-03-29T04:17:49;100246.41;;;3.34;42.74
32875;BME280;40468;42.128;24.750;2023-03-29T04:19:21;100239.53;;;3.33;42.87
32875;BME280;40468;42.128;24.750;2023-03-29T04:20:53;100242.13;;;3.35;42.72
32875;BME280;40468;42.128;24.750;2023-03-29T04:22:25;100253.25;;;3.35;42.79
32875;BME280;40468;42.128;24.750;2023-03-29T04:23:56;100242.97;;;3.35;42.69
32875;BME280;40468;42.128;24.750;2023-03-29T04:25:28;100247.28;;;3.35;42.82
32875;BME280;40468;42.128;24.750;2023-03-29T04:26:59;100246.41;;;3.34;42.81
32875;BME280;40468;42.128;24.750;2023-03-29T04:28:32;100268.72;;;3.35;42.63
32875;BME280;40468;42.128;24.750;2023-03-29T04:30:05;100231.94;;;3.21;42.59
32875;BME280;40468;42.128;24.750;2023-03-29T04:31:37;100255.84;;;3.34;42.83
32875;BME280;40468;42.128;24.750;2023-03-29T04:33:09;100250.69;;;3.34;42.98
32875;BME280;40468;42.128;24.750;2023-03-29T04:34:59;100246.38;;;3.36;42.88
32875;BME280;40468;42.128;24.750;2023-03-29T04:36:34;100252.38;;;3.36;43.11
32875;BME280;40468;42.128;24.750;2023-03-29T04:38:06;100257.53;;;3.36;43.12
32875;BME280;40468;42.128;24.750;2023-03-29T04:39:39;100261.84;;;3.37;42.87
32875;BME280;40468;42.128;24.750;2023-03-29T04:41:12;100250.63;;;3.40;42.99
32875;BME280;40468;42.128;24.750;2023-03-29T04:42:44;100262.66;;;3.39;42.96
32875;BME280;40468;42.128;24.750;2023-03-29T04:44:16;100259.25;;;3.40;43.05
32875;BME280;40468;42.128;24.750;2023-03-29T04:45:48;100196.09;;;3.00;42.92
32875;BME280;40468;42.128;24.750;2023-03-29T04:47:20;100263.50;;;3.41;42.97
32875;BME280;40468;42.128;24.750;2023-03-29T04:48:52;100260.94;;;3.41;42.94
32875;BME280;40468;42.128;24.750;2023-03-29T04:50:24;100269.50;;;3.44;42.90
32875;BME280;40468;42.128;24.750;2023-03-29T04:51:58;100263.47;;;3.45;42.87
32875;BME280;40468;42.128;24.750;2023-03-29T04:53:30;100254.06;;;3.44;42.87
32875;BME280;40468;42.128;24.750;2023-03-29T04:55:03;100265.22;;;3.42;42.98
32875;BME280;40468;42.128;24.750;2023-03-29T04:56:36;100270.38;;;3.39;42.78
32875;BME280;40468;42.128;24.750;2023-03-29T04:58:08;100254.13;;;3.37;42.89
32875;BME280;40468;42.128;24.750;2023-03-29T04:59:40;100276.31;;;3.48;42.71
32875;BME280;40468;42.128;24.750;2023-03-29T05:01:12;100272.00;;;3.51;42.68
32875;BME280;40468;42.128;24.750;2023-03-29T05:02:44;100276.31;;;3.52;42.90
32875;BME280;40468;42.128;24.750;2023-03-29T05:04:16;100255.81;;;3.38;42.74
32875;BME280;40468;42.128;24.750;2023-03-29T05:05:48;100255.78;;;3.41;42.75
32875;BME280;40468;42.128;24.750;2023-03-29T05:07:22;100284.00;;;3.55;42.70
32875;BME280;40468;42.128;24.750;2023-03-29T05:08:53;100280.53;;;3.56;42.86
32875;BME280;40468;42.128;24.750;2023-03-29T05:10:26;100276.25;;;3.58;42.64
32875;BME280;40468;42.128;24.750;2023-03-29T05:11:58;100277.06;;;3.60;42.67
32875;BME280;40468;42.128;24.750;2023-03-29T05:13:29;100283.09;;;3.61;42.70
32875;BME280;40468;42.128;24.750;2023-03-29T05:15:01;100283.03;;;3.65;42.78
32875;BME280;40468;42.128;24.750;2023-03-29T05:16:34;100275.34;;;3.64;42.69
32875;BME280;40468;42.128;24.750;2023-03-29T05:18:07;100278.72;;;3.66;42.77
32875;BME280;40468;42.128;24.750;2023-03-29T05:19:39;100281.28;;;3.69;42.66
32875;BME280;40468;42.128;24.750;2023-03-29T05:21:10;100285.59;;;3.70;42.74
32875;BME280;40468;42.128;24.750;2023-03-29T05:22:44;100274.47;;;3.65;42.85
32875;BME280;40468;42.128;24.750;2023-03-29T05:24:16;100281.28;;;3.71;42.83
32875;BME280;40468;42.128;24.750;2023-03-29T05:25:48;100282.97;;;3.73;42.94
32875;BME280;40468;42.128;24.750;2023-03-29T05:27:20;100285.50;;;3.79;42.83
32875;BME280;40468;42.128;24.750;2023-03-29T05:28:52;100286.28;;;3.84;42.61
32875;BME280;40468;42.128;24.750;2023-03-29T05:30:24;100285.38;;;3.90;42.76
32875;BME280;40468;42.128;24.750;2023-03-29T05:31:56;100289.63;;;3.93;42.61
32875;BME280;40468;42.128;24.750;2023-03-29T05:33:29;100289.59;;;3.96;42.56
32875;BME280;40468;42.128;24.750;2023-03-29T05:35:01;100277.59;;;3.93;42.61
32875;BME280;40468;42.128;24.750;2023-03-29T05:36:33;100272.50;;;3.88;42.65
32875;BME280;40468;42.128;24.750;2023-03-29T05:38:06;100287.00;;;3.99;42.55
32875;BME280;40468;42.128;24.750;2023-03-29T05:39:38;100281.81;;;4.02;42.44
32875;BME280;40468;42.128;24.750;2023-03-29T05:41:10;100289.50;;;4.05;42.43
32875;BME280;40468;42.128;24.750;2023-03-29T05:42:42;100295.47;;;4.10;42.50
32875;BME280;40468;42.128;24.750;2023-03-29T05:44:13;100278.34;;;4.06;42.47
32875;BME280;40468;42.128;24.750;2023-03-29T05:45:46;100288.47;;;4.20;42.36
32875;BME280;40468;42.128;24.750;2023-03-29T05:47:18;100299.56;;;4.29;42.21
32875;BME280;40468;42.128;24.750;2023-03-29T05:48:50;100304.53;;;4.43;42.02
32875;BME280;40468;42.128;24.750;2023-03-29T05:50:21;100286.03;;;4.78;41.86
32875;BME280;40468;42.128;24.750;2023-03-29T05:51:54;100224.66;;;5.00;41.06
32875;BME280;40468;42.128;24.750;2023-03-29T05:53:28;100260.91;;;5.97;39.97
32875;BME280;40468;42.128;24.750;2023-03-29T05:54:59;100288.22;;;6.94;38.96
32875;BME280;40468;42.128;24.750;2023-03-29T05:56:31;100291.88;;;7.58;37.45
32875;BME280;40468;42.128;24.750;2023-03-29T05:58:03;100284.63;;;8.05;36.33
32875;BME280;40468;42.128;24.750;2023-03-29T05:59:35;100293.06;;;8.45;35.52
32875;BME280;40468;42.128;24.750;2023-03-29T06:01:10;100288.41;;;8.85;35.17
32875;BME280;40468;42.128;24.750;2023-03-29T06:02:43;100284.16;;;9.11;34.47
32875;BME280;40468;42.128;24.750;2023-03-29T06:04:14;100291.16;;;9.09;33.82
32875;BME280;40468;42.128;24.750;2023-03-29T06:05:48;100292.34;;;8.69;34.20
32875;BME280;40468;42.128;24.750;2023-03-29T06:07:20;100292.00;;;8.19;35.15
32875;BME280;40468;42.128;24.750;2023-03-29T06:08:54;100286.06;;;7.83;35.71
32875;BME280;40468;42.128;24.750;2023-03-29T06:10:26;100292.84;;;7.54;36.15
32875;BME280;40468;42.128;24.750;2023-03-29T06:11:58;100285.56;;;7.34;36.34
32875;BME280;40468;42.128;24.750;2023-03-29T06:13:32;100296.31;;;7.17;36.36
32875;BME280;40468;42.128;24.750;2023-03-29T06:15:04;100300.03;;;7.05;36.37
32875;BME280;40468;42.128;24.750;2023-03-29T06:16:36;100296.84;;;6.94;36.38
32875;BME280;40468;42.128;24.750;2023-03-29T06:18:08;100308.16;;;6.90;36.50
32875;BME280;40468;42.128;24.750;2023-03-29T06:19:40;100306.41;;;6.92;36.63
32875;BME280;40468;42.128;24.750;2023-03-29T06:21:13;100305.38;;;6.99;36.54
32875;BME280;40468;42.128;24.750;2023-03-29T06:22:46;100306.97;;;7.03;36.49
32875;BME280;40468;42.128;24.750;2023-03-29T06:24:19;100316.28;;;7.12;35.98
32875;BME280;40468;42.128;24.750;2023-03-29T06:25:51;100309.38;;;7.13;35.82
32875;BME280;40468;42.128;24.750;2023-03-29T06:27:23;100323.19;;;7.13;35.52
32875;BME280;40468;42.128;24.750;2023-03-29T06:28:55;100311.88;;;7.17;35.54
32875;BME280;40468;42.128;24.750;2023-03-29T06:30:26;100309.19;;;7.22;35.49
32875;BME280;40468;42.128;24.750;2023-03-29T06:31:58;100308.06;;;7.32;35.36
32875;BME280;40468;42.128;24.750;2023-03-29T06:33:31;100331.16;;;7.41;34.66
32875;BME280;40468;42.128;24.750;2023-03-29T06:35:03;100320.84;;;7.40;34.42
32875;BME280;40468;42.128;24.750;2023-03-29T06:36:35;100323.31;;;7.44;34.33
32875;BME280;40468;42.128;24.750;2023-03-29T06:38:08;100323.00;;;7.57;34.39
32875;BME280;40468;42.128;24.750;2023-03-29T06:39:42;100336.38;;;7.75;34.34
32875;BME280;40468;42.128;24.750;2023-03-29T06:41:14;100341.13;;;7.92;34.11
32875;BME280;40468;42.128;24.750;2023-03-29T06:42:46;100338.09;;;8.09;33.68
32875;BME280;40468;42.128;24.750;2023-03-29T06:44:17;100330.69;;;8.28;32.86
32875;BME280;40468;42.128;24.750;2023-03-29T06:45:49;100335.59;;;8.39;32.46
32875;BME280;40468;42.128;24.750;2023-03-29T06:47:21;100333.41;;;8.56;32.46
32875;BME280;40468;42.128;24.750;2023-03-29T06:48:58;100310.03;;;8.86;32.28
32875;BME280;40468;42.128;24.750;2023-03-29T06:50:30;100283.41;;;8.79;31.37
32875;BME280;40468;42.128;24.750;2023-03-29T06:52:03;100335.19;;;9.40;31.08
32875;BME280;40468;42.128;24.750;2023-03-29T06:53:34;100332.03;;;9.59;30.26
32875;BME280;40468;42.128;24.750;2023-03-29T06:55:08;100333.63;;;9.88;30.17
32875;BME280;40468;42.128;24.750;2023-03-29T06:56:41;100334.50;;;10.13;29.85
32875;BME280;40468;42.128;24.750;2023-03-29T06:58:13;100330.22;;;10.37;29.48
32875;BME280;40468;42.128;24.750;2023-03-29T06:59:44;100331.19;;;10.58;29.09
32875;BME280;40468;42.128;24.750;2023-03-29T07:01:17;100332.69;;;10.65;28.42
32875;BME280;40468;42.128;24.750;2023-03-29T07:02:48;100337.25;;;10.82;28.04
32875;BME280;40468;42.128;24.750;2023-03-29T07:04:21;100338.50;;;10.96;28.08
32875;BME280;40468;42.128;24.750;2023-03-29T07:05:59;100344.16;;;11.07;28.04
32875;BME280;40468;42.128;24.750;2023-03-29T07:07:32;100337.84;;;11.12;27.91
32875;BME280;40468;42.128;24.750;2023-03-29T07:09:22;100341.91;;;11.20;27.71
32875;BME280;40468;42.128;24.750;2023-03-29T07:10:57;100253.16;;;10.79;27.65
32875;BME280;40468;42.128;24.750;2023-03-29T07:12:30;100340.94;;;11.44;27.94
32875;BME280;40468;42.128;24.750;2023-03-29T07:14:02;100239.53;;;10.94;27.43
32875;BME280;40468;42.128;24.750;2023-03-29T07:15:34;100350.03;;;11.56;27.32
32875;BME280;40468;42.128;24.750;2023-03-29T07:17:06;100347.41;;;11.56;27.25
32875;BME280;40468;42.128;24.750;2023-03-29T07:18:38;100355.41;;;11.73;27.07
32875;BME280;40468;42.128;24.750;2023-03-29T07:20:11;100331.78;;;11.76;26.74
32875;BME280;40468;42.128;24.750;2023-03-29T07:21:43;100322.88;;;11.82;26.65
32875;BME280;40468;42.128;24.750;2023-03-29T07:23:15;100336.84;;;11.81;26.08
32875;BME280;40468;42.128;24.750;2023-03-29T07:24:47;100356.19;;;11.75;26.40
32875;BME280;40468;42.128;24.750;2023-03-29T07:26:21;100338.72;;;11.77;26.37
32875;BME280;40468;42.128;24.750;2023-03-29T07:27:53;100287.81;;;11.47;26.23
32875;BME280;40468;42.128;24.750;2023-03-29T07:29:25;100360.19;;;11.84;26.50
32875;BME280;40468;42.128;24.750;2023-03-29T07:31:01;100346.34;;;11.82;26.45
32875;BME280;40468;42.128;24.750;2023-03-29T07:32:34;100335.06;;;11.81;26.01
32875;BME280;40468;42.128;24.750;2023-03-29T07:34:07;100337.53;;;11.86;26.21
32875;BME280;40468;42.128;24.750;2023-03-29T07:35:40;100339.28;;;11.86;26.20
32875;BME280;40468;42.128;24.750;2023-03-29T07:37:13;100334.31;;;12.00;26.26
32875;BME280;40468;42.128;24.750;2023-03-29T07:38:45;100326.88;;;12.11;25.64
32875;BME280;40468;42.128;24.750;2023-03-29T07:40:18;100347.19;;;12.25;25.82
32875;BME280;40468;42.128;24.750;2023-03-29T07:41:55;100332.09;;;12.32;25.01
32875;BME280;40468;42.128;24.750;2023-03-29T07:43:27;100324.00;;;12.17;24.71
32875;BME280;40468;42.128;24.750;2023-03-29T07:44:59;100321.97;;;12.03;24.32
32875;BME280;40468;42.128;24.750;2023-03-29T07:46:31;100331.00;;;11.96;24.26
32875;BME280;40468;42.128;24.750;2023-03-29T07:48:04;100325.47;;;12.04;24.54
32875;BME280;40468;42.128;24.750;2023-03-29T07:49:36;100325.13;;;12.12;24.12
32875;BME280;40468;42.128;24.750;2023-03-29T07:51:08;100322.47;;;12.13;23.66
32875;BME280;40468;42.128;24.750;2023-03-29T07:52:41;100323.69;;;12.04;23.90
32875;BME280;40468;42.128;24.750;2023-03-29T07:54:13;100317.66;;;11.82;23.49
32875;BME280;40468;42.128;24.750;2023-03-29T07:55:45;100307.72;;;11.70;23.44
32875;BME280;40468;42.128;24.750;2023-03-29T07:57:20;100336.16;;;11.76;23.82
32875;BME280;40468;42.128;24.750;2023-03-29T07:58:51;100351.91;;;11.74;23.59
32875;BME280;40468;42.128;24.750;2023-03-29T08:00:24;100347.72;;;11.70;23.46
32875;BME280;40468;42.128;24.750;2023-03-29T08:01:56;100318.59;;;11.59;23.56
32875;BME280;40468;42.128;24.750;2023-03-29T08:03:27;100345.81;;;11.74;23.86
32875;BME280;40468;42.128;24.750;2023-03-29T08:04:59;100334.22;;;11.81;23.73
32875;BME280;40468;42.128;24.750;2023-03-29T08:06:31;100320.75;;;11.92;23.34
32875;BME280;40468;42.128;24.750;2023-03-29T08:08:04;100325.53;;;12.02;23.50
32875;BME280;40468;42.128;24.750;2023-03-29T08:09:37;100319.09;;;12.10;23.37